YXBA weather

Ballina - Kingsford Smith Park Helipad
Ballina, New South Wales, Australia

Public forecast

Using degrees Celsius for public forecast. Weather courtesy of forecast.io.

Closest aviation weather report (METAR) to Ballina - Kingsford Smith Park Helipad

Closest report is Ballina Byron Gateway Airport, 2.2 nm (4.0 km) NNW. Retrieved 2019/10/21 06:00 UTC (39 minutes ago):

YBNA 210600Z AUTO 17013KT 9999 // NCD 21/12 Q1024

Closest aviation forecast (TAF) to Ballina - Kingsford Smith Park Helipad

Forecast is more than 12 hours old.

Closest forecast is Gold Coast Airport, 42.5 nm (78.6 km) N. Retrieved 2019/10/20 18:00 UTC (13 hours ago):

TAF YBCG 201701Z 2018/2118 19010KT 9999 SCT030 SCT040 FM202300 14017KT 9999 SCT035 FM210900 21007KT 9999 -SHRA SCT025 SCT040